sensor_id;sensor_type;location;lat;lon;timestamp;P1;durP1;ratioP1;P2;durP2;ratioP2
23988;SDS011;12202;52.136;5.592;2022-11-28T00:01:05;26.75;;;16.00;;
23988;SDS011;12202;52.136;5.592;2022-11-28T00:03:31;33.00;;;16.35;;
23988;SDS011;12202;52.136;5.592;2022-11-28T00:06:02;27.63;;;15.95;;
23988;SDS011;12202;52.136;5.592;2022-11-28T00:08:28;29.15;;;17.33;;
23988;SDS011;12202;52.136;5.592;2022-11-28T00:10:54;29.38;;;15.75;;
23988;SDS011;12202;52.136;5.592;2022-11-28T00:13:20;31.85;;;16.30;;
23988;SDS011;12202;52.136;5.592;2022-11-28T00:15:56;26.17;;;15.45;;
23988;SDS011;12202;52.136;5.592;2022-11-28T00:18:22;29.85;;;15.95;;
23988;SDS011;12202;52.136;5.592;2022-11-28T00:20:48;36.35;;;16.48;;
23988;SDS011;12202;52.136;5.592;2022-11-28T00:23:14;31.08;;;16.15;;
23988;SDS011;12202;52.136;5.592;2022-11-28T00:25:40;28.85;;;14.52;;
23988;SDS011;12202;52.136;5.592;2022-11-28T00:28:06;26.92;;;15.60;;
23988;SDS011;12202;52.136;5.592;2022-11-28T00:30:36;24.90;;;14.52;;
23988;SDS011;12202;52.136;5.592;2022-11-28T00:33:02;25.13;;;15.43;;
23988;SDS011;12202;52.136;5.592;2022-11-28T00:35:28;29.15;;;14.77;;
23988;SDS011;12202;52.136;5.592;2022-11-28T00:37:54;23.23;;;14.40;;
23988;SDS011;12202;52.136;5.592;2022-11-28T00:40:20;20.77;;;13.73;;
23988;SDS011;12202;52.136;5.592;2022-11-28T00:42:46;25.70;;;13.18;;
23988;SDS011;12202;52.136;5.592;2022-11-28T00:45:12;23.40;;;13.50;;
23988;SDS011;12202;52.136;5.592;2022-11-28T00:47:38;21.60;;;13.93;;
23988;SDS011;12202;52.136;5.592;2022-11-28T00:50:04;23.65;;;13.20;;
23988;SDS011;12202;52.136;5.592;2022-11-28T00:52:31;21.85;;;13.63;;
23988;SDS011;12202;52.136;5.592;2022-11-28T00:54:57;26.67;;;14.15;;
23988;SDS011;12202;52.136;5.592;2022-11-28T00:57:23;26.55;;;13.95;;
23988;SDS011;12202;52.136;5.592;2022-11-28T00:59:49;28.60;;;14.35;;
23988;SDS011;12202;52.136;5.592;2022-11-28T01:02:15;25.98;;;14.70;;
23988;SDS011;12202;52.136;5.592;2022-11-28T01:04:41;29.25;;;15.75;;
23988;SDS011;12202;52.136;5.592;2022-11-28T01:07:07;30.63;;;14.98;;
23988;SDS011;12202;52.136;5.592;2022-11-28T01:09:33;29.67;;;15.77;;
23988;SDS011;12202;52.136;5.592;2022-11-28T01:11:59;22.08;;;13.95;;
23988;SDS011;12202;52.136;5.592;2022-11-28T01:14:25;29.33;;;16.17;;
23988;SDS011;12202;52.136;5.592;2022-11-28T01:16:51;28.50;;;15.27;;
23988;SDS011;12202;52.136;5.592;2022-11-28T01:19:17;28.08;;;14.98;;
23988;SDS011;12202;52.136;5.592;2022-11-28T01:21:43;28.67;;;14.98;;
23988;SDS011;12202;52.136;5.592;2022-11-28T01:24:10;31.25;;;16.27;;
23988;SDS011;12202;52.136;5.592;2022-11-28T01:26:36;29.08;;;16.38;;
23988;SDS011;12202;52.136;5.592;2022-11-28T01:29:03;28.38;;;16.05;;
23988;SDS011;12202;52.136;5.592;2022-11-28T01:31:29;36.15;;;16.35;;
23988;SDS011;12202;52.136;5.592;2022-11-28T01:33:55;27.48;;;16.00;;
23988;SDS011;12202;52.136;5.592;2022-11-28T01:36:21;26.67;;;15.80;;
23988;SDS011;12202;52.136;5.592;2022-11-28T01:38:48;25.23;;;15.25;;
23988;SDS011;12202;52.136;5.592;2022-11-28T01:41:15;28.35;;;15.70;;
23988;SDS011;12202;52.136;5.592;2022-11-28T01:43:58;26.73;;;15.82;;
23988;SDS011;12202;52.136;5.592;2022-11-28T01:46:24;27.77;;;16.65;;
23988;SDS011;12202;52.136;5.592;2022-11-28T01:48:50;33.33;;;15.63;;
23988;SDS011;12202;52.136;5.592;2022-11-28T01:51:16;28.75;;;16.27;;
23988;SDS011;12202;52.136;5.592;2022-11-28T01:53:43;31.30;;;15.88;;
23988;SDS011;12202;52.136;5.592;2022-11-28T01:56:20;32.78;;;16.25;;
23988;SDS011;12202;52.136;5.592;2022-11-28T01:58:49;25.98;;;16.10;;
23988;SDS011;12202;52.136;5.592;2022-11-28T02:01:16;31.25;;;16.92;;
23988;SDS011;12202;52.136;5.592;2022-11-28T02:03:47;30.33;;;15.75;;
23988;SDS011;12202;52.136;5.592;2022-11-28T02:06:15;30.13;;;17.92;;
23988;SDS011;12202;52.136;5.592;2022-11-28T02:08:43;30.30;;;16.48;;
23988;SDS011;12202;52.136;5.592;2022-11-28T02:30:14;32.80;;;15.15;;
23988;SDS011;12202;52.136;5.592;2022-11-28T02:32:49;25.20;;;14.20;;
23988;SDS011;12202;52.136;5.592;2022-11-28T02:38:01;28.70;;;13.85;;
23988;SDS011;12202;52.136;5.592;2022-11-28T02:43:08;26.85;;;13.70;;
23988;SDS011;12202;52.136;5.592;2022-11-28T02:45:56;25.75;;;13.98;;
23988;SDS011;12202;52.136;5.592;2022-11-28T02:51:21;23.70;;;12.65;;
23988;SDS011;12202;52.136;5.592;2022-11-28T02:53:48;27.95;;;12.95;;
23988;SDS011;12202;52.136;5.592;2022-11-28T02:56:16;25.02;;;12.93;;
23988;SDS011;12202;52.136;5.592;2022-11-28T02:58:42;23.35;;;12.50;;
23988;SDS011;12202;52.136;5.592;2022-11-28T03:01:16;22.45;;;12.85;;
23988;SDS011;12202;52.136;5.592;2022-11-28T03:03:51;25.80;;;13.07;;
23988;SDS011;12202;52.136;5.592;2022-11-28T03:06:24;19.30;;;11.48;;
23988;SDS011;12202;52.136;5.592;2022-11-28T03:11:46;23.40;;;12.75;;
23988;SDS011;12202;52.136;5.592;2022-11-28T03:14:18;19.17;;;11.98;;
23988;SDS011;12202;52.136;5.592;2022-11-28T03:16:55;20.40;;;12.68;;
23988;SDS011;12202;52.136;5.592;2022-11-28T03:19:28;21.77;;;12.45;;
23988;SDS011;12202;52.136;5.592;2022-11-28T03:24:27;25.10;;;12.20;;
23988;SDS011;12202;52.136;5.592;2022-11-28T03:26:57;19.00;;;12.60;;
23988;SDS011;12202;52.136;5.592;2022-11-28T03:29:30;22.95;;;11.93;;
23988;SDS011;12202;52.136;5.592;2022-11-28T03:31:59;21.27;;;12.07;;
23988;SDS011;12202;52.136;5.592;2022-11-28T03:34:28;22.00;;;12.00;;
23988;SDS011;12202;52.136;5.592;2022-11-28T03:36:57;28.73;;;13.07;;
23988;SDS011;12202;52.136;5.592;2022-11-28T03:39:27;21.55;;;12.48;;
23988;SDS011;12202;52.136;5.592;2022-11-28T03:41:58;20.00;;;12.13;;
23988;SDS011;12202;52.136;5.592;2022-11-28T03:44:28;18.73;;;11.35;;
23988;SDS011;12202;52.136;5.592;2022-11-28T03:46:56;18.95;;;11.68;;
23988;SDS011;12202;52.136;5.592;2022-11-28T03:49:24;23.05;;;11.63;;
23988;SDS011;12202;52.136;5.592;2022-11-28T03:51:54;24.33;;;12.55;;
23988;SDS011;12202;52.136;5.592;2022-11-28T03:56:52;18.33;;;12.65;;
23988;SDS011;12202;52.136;5.592;2022-11-28T03:59:22;21.38;;;12.80;;
23988;SDS011;12202;52.136;5.592;2022-11-28T04:02:13;21.00;;;13.45;;
23988;SDS011;12202;52.136;5.592;2022-11-28T04:07:20;20.63;;;12.60;;
23988;SDS011;12202;52.136;5.592;2022-11-28T04:09:49;23.08;;;12.93;;
23988;SDS011;12202;52.136;5.592;2022-11-28T04:12:18;19.85;;;12.90;;
23988;SDS011;12202;52.136;5.592;2022-11-28T04:14:46;19.65;;;12.50;;
23988;SDS011;12202;52.136;5.592;2022-11-28T04:17:24;29.63;;;14.40;;
23988;SDS011;12202;52.136;5.592;2022-11-28T04:20:01;25.20;;;13.43;;
23988;SDS011;12202;52.136;5.592;2022-11-28T04:22:48;22.40;;;13.27;;
23988;SDS011;12202;52.136;5.592;2022-11-28T04:25:15;23.85;;;12.73;;
23988;SDS011;12202;52.136;5.592;2022-11-28T04:27:44;23.45;;;14.75;;
23988;SDS011;12202;52.136;5.592;2022-11-28T04:30:12;26.63;;;13.35;;
23988;SDS011;12202;52.136;5.592;2022-11-28T04:32:39;21.05;;;13.32;;
23988;SDS011;12202;52.136;5.592;2022-11-28T04:35:08;26.98;;;14.27;;
23988;SDS011;12202;52.136;5.592;2022-11-28T04:37:36;28.25;;;14.95;;
23988;SDS011;12202;52.136;5.592;2022-11-28T04:40:02;30.27;;;15.02;;
23988;SDS011;12202;52.136;5.592;2022-11-28T04:42:44;23.92;;;14.25;;
23988;SDS011;12202;52.136;5.592;2022-11-28T04:45:31;25.05;;;13.43;;
23988;SDS011;12202;52.136;5.592;2022-11-28T04:47:58;22.48;;;14.27;;
23988;SDS011;12202;52.136;5.592;2022-11-28T04:50:27;24.38;;;13.80;;
23988;SDS011;12202;52.136;5.592;2022-11-28T04:55:25;26.27;;;15.35;;
23988;SDS011;12202;52.136;5.592;2022-11-28T04:57:55;33.03;;;15.35;;
23988;SDS011;12202;52.136;5.592;2022-11-28T05:00:24;28.45;;;15.50;;
23988;SDS011;12202;52.136;5.592;2022-11-28T05:02:51;24.10;;;14.55;;
23988;SDS011;12202;52.136;5.592;2022-11-28T05:05:19;25.90;;;15.30;;
23988;SDS011;12202;52.136;5.592;2022-11-28T05:07:46;25.90;;;14.65;;
23988;SDS011;12202;52.136;5.592;2022-11-28T05:10:16;24.70;;;14.77;;
23988;SDS011;12202;52.136;5.592;2022-11-28T05:12:42;21.27;;;13.23;;
23988;SDS011;12202;52.136;5.592;2022-11-28T05:15:11;23.65;;;13.45;;
23988;SDS011;12202;52.136;5.592;2022-11-28T05:17:37;27.38;;;14.73;;
23988;SDS011;12202;52.136;5.592;2022-11-28T05:20:04;26.13;;;14.43;;
23988;SDS011;12202;52.136;5.592;2022-11-28T05:22:30;26.40;;;13.98;;
23988;SDS011;12202;52.136;5.592;2022-11-28T05:24:56;26.73;;;14.60;;
23988;SDS011;12202;52.136;5.592;2022-11-28T05:27:22;24.52;;;13.77;;
23988;SDS011;12202;52.136;5.592;2022-11-28T05:29:49;23.88;;;14.30;;
23988;SDS011;12202;52.136;5.592;2022-11-28T05:32:17;27.63;;;14.43;;
23988;SDS011;12202;52.136;5.592;2022-11-28T05:34:43;25.35;;;14.68;;
23988;SDS011;12202;52.136;5.592;2022-11-28T05:37:09;24.02;;;14.05;;
23988;SDS011;12202;52.136;5.592;2022-11-28T05:39:35;26.45;;;15.52;;
23988;SDS011;12202;52.136;5.592;2022-11-28T05:42:01;23.63;;;14.90;;
23988;SDS011;12202;52.136;5.592;2022-11-28T05:44:27;26.23;;;15.07;;
23988;SDS011;12202;52.136;5.592;2022-11-28T05:46:53;22.40;;;14.52;;
23988;SDS011;12202;52.136;5.592;2022-11-28T05:52:29;27.50;;;14.73;;
23988;SDS011;12202;52.136;5.592;2022-11-28T05:54:56;21.58;;;14.52;;
23988;SDS011;12202;52.136;5.592;2022-11-28T05:57:23;23.77;;;15.48;;
23988;SDS011;12202;52.136;5.592;2022-11-28T05:59:49;21.38;;;14.30;;
23988;SDS011;12202;52.136;5.592;2022-11-28T06:02:15;24.77;;;14.55;;
23988;SDS011;12202;52.136;5.592;2022-11-28T06:04:41;28.00;;;15.70;;
23988;SDS011;12202;52.136;5.592;2022-11-28T06:07:07;24.85;;;15.68;;
23988;SDS011;12202;52.136;5.592;2022-11-28T06:09:33;25.42;;;16.42;;
23988;SDS011;12202;52.136;5.592;2022-11-28T06:11:59;20.80;;;14.18;;
23988;SDS011;12202;52.136;5.592;2022-11-28T06:14:25;20.10;;;14.05;;
23988;SDS011;12202;52.136;5.592;2022-11-28T06:16:51;19.70;;;12.98;;
23988;SDS011;12202;52.136;5.592;2022-11-28T06:19:17;23.58;;;14.90;;
23988;SDS011;12202;52.136;5.592;2022-11-28T06:21:43;21.90;;;14.38;;
23988;SDS011;12202;52.136;5.592;2022-11-28T06:24:09;19.10;;;13.68;;
23988;SDS011;12202;52.136;5.592;2022-11-28T06:26:35;23.77;;;14.93;;
23988;SDS011;12202;52.136;5.592;2022-11-28T06:29:01;23.80;;;14.93;;
23988;SDS011;12202;52.136;5.592;2022-11-28T06:31:28;23.73;;;14.63;;
23988;SDS011;12202;52.136;5.592;2022-11-28T06:33:54;23.75;;;15.98;;
23988;SDS011;12202;52.136;5.592;2022-11-28T06:36:20;22.40;;;14.02;;
23988;SDS011;12202;52.136;5.592;2022-11-28T06:38:47;23.58;;;15.07;;
23988;SDS011;12202;52.136;5.592;2022-11-28T06:41:14;24.30;;;14.77;;
23988;SDS011;12202;52.136;5.592;2022-11-28T06:43:41;24.67;;;15.10;;
23988;SDS011;12202;52.136;5.592;2022-11-28T06:46:10;25.80;;;15.55;;
23988;SDS011;12202;52.136;5.592;2022-11-28T06:48:37;24.50;;;16.27;;
23988;SDS011;12202;52.136;5.592;2022-11-28T06:51:03;26.48;;;15.27;;
23988;SDS011;12202;52.136;5.592;2022-11-28T06:53:30;26.45;;;16.02;;
23988;SDS011;12202;52.136;5.592;2022-11-28T06:55:56;25.25;;;15.93;;
23988;SDS011;12202;52.136;5.592;2022-11-28T06:58:23;23.08;;;16.17;;
23988;SDS011;12202;52.136;5.592;2022-11-28T07:00:49;23.88;;;14.90;;
23988;SDS011;12202;52.136;5.592;2022-11-28T07:03:15;27.02;;;14.75;;
23988;SDS011;12202;52.136;5.592;2022-11-28T07:05:40;24.02;;;16.27;;
23988;SDS011;12202;52.136;5.592;2022-11-28T07:08:06;25.95;;;16.67;;
23988;SDS011;12202;52.136;5.592;2022-11-28T07:10:33;26.63;;;17.10;;
23988;SDS011;12202;52.136;5.592;2022-11-28T07:13:00;27.20;;;18.13;;
23988;SDS011;12202;52.136;5.592;2022-11-28T07:15:26;28.92;;;18.13;;
23988;SDS011;12202;52.136;5.592;2022-11-28T07:17:52;26.88;;;17.35;;
23988;SDS011;12202;52.136;5.592;2022-11-28T07:20:18;26.40;;;17.80;;
23988;SDS011;12202;52.136;5.592;2022-11-28T07:22:46;28.67;;;17.25;;
23988;SDS011;12202;52.136;5.592;2022-11-28T07:25:12;34.67;;;19.38;;
23988;SDS011;12202;52.136;5.592;2022-11-28T07:27:39;35.22;;;20.67;;
23988;SDS011;12202;52.136;5.592;2022-11-28T07:30:05;27.70;;;18.20;;
23988;SDS011;12202;52.136;5.592;2022-11-28T07:32:31;31.00;;;17.92;;
23988;SDS011;12202;52.136;5.592;2022-11-28T07:34:57;29.60;;;18.55;;
23988;SDS011;12202;52.136;5.592;2022-11-28T07:37:24;30.38;;;18.13;;
23988;SDS011;12202;52.136;5.592;2022-11-28T07:39:50;29.30;;;17.38;;
23988;SDS011;12202;52.136;5.592;2022-11-28T07:42:16;46.83;;;18.67;;
23988;SDS011;12202;52.136;5.592;2022-11-28T07:44:42;30.58;;;18.90;;
23988;SDS011;12202;52.136;5.592;2022-11-28T07:47:08;32.40;;;18.40;;
23988;SDS011;12202;52.136;5.592;2022-11-28T07:49:34;32.00;;;18.38;;
23988;SDS011;12202;52.136;5.592;2022-11-28T07:52:00;33.55;;;19.67;;
23988;SDS011;12202;52.136;5.592;2022-11-28T07:54:26;35.05;;;19.10;;
23988;SDS011;12202;52.136;5.592;2022-11-28T07:56:52;33.42;;;19.50;;
23988;SDS011;12202;52.136;5.592;2022-11-28T07:59:17;40.17;;;20.00;;
23988;SDS011;12202;52.136;5.592;2022-11-28T08:01:43;34.22;;;20.08;;
23988;SDS011;12202;52.136;5.592;2022-11-28T08:04:09;38.90;;;21.30;;
23988;SDS011;12202;52.136;5.592;2022-11-28T08:06:37;35.45;;;19.35;;
23988;SDS011;12202;52.136;5.592;2022-11-28T08:09:03;37.70;;;21.17;;
23988;SDS011;12202;52.136;5.592;2022-11-28T08:11:30;40.97;;;21.45;;
23988;SDS011;12202;52.136;5.592;2022-11-28T08:13:56;41.15;;;22.90;;
23988;SDS011;12202;52.136;5.592;2022-11-28T08:16:23;39.28;;;22.40;;
23988;SDS011;12202;52.136;5.592;2022-11-28T08:18:54;38.80;;;22.63;;
23988;SDS011;12202;52.136;5.592;2022-11-28T08:21:21;36.10;;;20.65;;
23988;SDS011;12202;52.136;5.592;2022-11-28T08:23:53;38.22;;;20.98;;
23988;SDS011;12202;52.136;5.592;2022-11-28T08:26:21;39.97;;;22.20;;
23988;SDS011;12202;52.136;5.592;2022-11-28T08:28:49;37.65;;;21.13;;
23988;SDS011;12202;52.136;5.592;2022-11-28T08:33:45;38.40;;;20.85;;
23988;SDS011;12202;52.136;5.592;2022-11-28T08:36:12;41.70;;;21.95;;
23988;SDS011;12202;52.136;5.592;2022-11-28T08:38:39;36.22;;;19.48;;
23988;SDS011;12202;52.136;5.592;2022-11-28T08:41:06;33.67;;;20.30;;
23988;SDS011;12202;52.136;5.592;2022-11-28T08:43:33;40.33;;;21.98;;
23988;SDS011;12202;52.136;5.592;2022-11-28T08:45:59;34.33;;;19.77;;
23988;SDS011;12202;52.136;5.592;2022-11-28T08:48:25;34.35;;;19.15;;
23988;SDS011;12202;52.136;5.592;2022-11-28T08:50:51;37.45;;;20.73;;
23988;SDS011;12202;52.136;5.592;2022-11-28T08:53:19;34.67;;;19.95;;
23988;SDS011;12202;52.136;5.592;2022-11-28T08:55:45;36.17;;;19.30;;
23988;SDS011;12202;52.136;5.592;2022-11-28T08:58:11;36.08;;;19.98;;
23988;SDS011;12202;52.136;5.592;2022-11-28T09:00:37;41.08;;;24.30;;
23988;SDS011;12202;52.136;5.592;2022-11-28T09:03:03;33.47;;;19.08;;
23988;SDS011;12202;52.136;5.592;2022-11-28T09:05:29;38.55;;;20.67;;
23988;SDS011;12202;52.136;5.592;2022-11-28T09:07:56;34.25;;;19.25;;
23988;SDS011;12202;52.136;5.592;2022-11-28T09:10:22;29.73;;;17.20;;
23988;SDS011;12202;52.136;5.592;2022-11-28T09:12:48;30.63;;;17.58;;
23988;SDS011;12202;52.136;5.592;2022-11-28T09:15:14;34.90;;;18.27;;
23988;SDS011;12202;52.136;5.592;2022-11-28T09:17:41;30.73;;;18.10;;
23988;SDS011;12202;52.136;5.592;2022-11-28T09:20:08;29.63;;;17.30;;
23988;SDS011;12202;52.136;5.592;2022-11-28T09:22:34;31.40;;;18.52;;
23988;SDS011;12202;52.136;5.592;2022-11-28T09:25:01;32.97;;;17.38;;
23988;SDS011;12202;52.136;5.592;2022-11-28T09:27:27;32.88;;;19.08;;
23988;SDS011;12202;52.136;5.592;2022-11-28T09:29:53;31.17;;;17.05;;
23988;SDS011;12202;52.136;5.592;2022-11-28T09:32:19;30.75;;;17.27;;
23988;SDS011;12202;52.136;5.592;2022-11-28T09:34:45;25.30;;;15.48;;
23988;SDS011;12202;52.136;5.592;2022-11-28T09:37:11;24.05;;;15.70;;
23988;SDS011;12202;52.136;5.592;2022-11-28T09:39:37;31.85;;;17.20;;
23988;SDS011;12202;52.136;5.592;2022-11-28T09:44:53;30.80;;;17.33;;
23988;SDS011;12202;52.136;5.592;2022-11-28T09:47:25;32.22;;;16.35;;
23988;SDS011;12202;52.136;5.592;2022-11-28T09:49:53;31.65;;;16.92;;
23988;SDS011;12202;52.136;5.592;2022-11-28T09:55:10;30.83;;;17.98;;
23988;SDS011;12202;52.136;5.592;2022-11-28T09:57:43;31.48;;;16.88;;
23988;SDS011;12202;52.136;5.592;2022-11-28T10:00:18;31.23;;;17.27;;
23988;SDS011;12202;52.136;5.592;2022-11-28T10:03:00;34.90;;;18.23;;
23988;SDS011;12202;52.136;5.592;2022-11-28T10:05:34;35.95;;;18.25;;
23988;SDS011;12202;52.136;5.592;2022-11-28T10:13:16;43.65;;;21.40;;
23988;SDS011;12202;52.136;5.592;2022-11-28T10:15:55;40.20;;;20.92;;
23988;SDS011;12202;52.136;5.592;2022-11-28T10:18:29;46.20;;;19.73;;
23988;SDS011;12202;52.136;5.592;2022-11-28T10:21:00;52.67;;;21.95;;
23988;SDS011;12202;52.136;5.592;2022-11-28T10:23:29;46.25;;;22.83;;
23988;SDS011;12202;52.136;5.592;2022-11-28T10:28:33;51.50;;;22.92;;
23988;SDS011;12202;52.136;5.592;2022-11-28T10:31:08;48.53;;;22.13;;
23988;SDS011;12202;52.136;5.592;2022-11-28T10:33:43;50.42;;;23.15;;
23988;SDS011;12202;52.136;5.592;2022-11-28T10:36:13;64.18;;;24.05;;
23988;SDS011;12202;52.136;5.592;2022-11-28T10:38:40;59.35;;;23.45;;
23988;SDS011;12202;52.136;5.592;2022-11-28T10:41:11;62.25;;;25.85;;
23988;SDS011;12202;52.136;5.592;2022-11-28T10:43:41;62.90;;;26.35;;
23988;SDS011;12202;52.136;5.592;2022-11-28T10:51:18;72.88;;;28.08;;
23988;SDS011;12202;52.136;5.592;2022-11-28T10:54:08;73.60;;;27.95;;
23988;SDS011;12202;52.136;5.592;2022-11-28T10:56:41;59.47;;;25.95;;
23988;SDS011;12202;52.136;5.592;2022-11-28T11:01:41;67.65;;;28.15;;
23988;SDS011;12202;52.136;5.592;2022-11-28T11:04:08;72.70;;;29.35;;
23988;SDS011;12202;52.136;5.592;2022-11-28T11:06:41;71.90;;;28.20;;
23988;SDS011;12202;52.136;5.592;2022-11-28T11:09:08;78.22;;;31.00;;
23988;SDS011;12202;52.136;5.592;2022-11-28T11:11:48;78.30;;;30.98;;
23988;SDS011;12202;52.136;5.592;2022-11-28T11:14:16;77.88;;;30.25;;
23988;SDS011;12202;52.136;5.592;2022-11-28T11:16:54;76.18;;;30.40;;
23988;SDS011;12202;52.136;5.592;2022-11-28T11:21:59;87.63;;;32.78;;
23988;SDS011;12202;52.136;5.592;2022-11-28T11:24:25;91.32;;;32.60;;
23988;SDS011;12202;52.136;5.592;2022-11-28T11:26:51;88.97;;;32.33;;
23988;SDS011;12202;52.136;5.592;2022-11-28T11:29:21;87.85;;;32.85;;
23988;SDS011;12202;52.136;5.592;2022-11-28T11:31:51;82.13;;;32.03;;
23988;SDS011;12202;52.136;5.592;2022-11-28T11:34:18;82.25;;;32.30;;
23988;SDS011;12202;52.136;5.592;2022-11-28T11:36:44;81.68;;;33.30;;
23988;SDS011;12202;52.136;5.592;2022-11-28T11:41:40;91.78;;;33.05;;
23988;SDS011;12202;52.136;5.592;2022-11-28T11:46:52;86.88;;;33.25;;
23988;SDS011;12202;52.136;5.592;2022-11-28T11:49:34;106.25;;;36.00;;
23988;SDS011;12202;52.136;5.592;2022-11-28T11:52:03;101.05;;;36.45;;
23988;SDS011;12202;52.136;5.592;2022-11-28T11:54:29;96.72;;;35.55;;
23988;SDS011;12202;52.136;5.592;2022-11-28T11:56:56;99.97;;;36.85;;
23988;SDS011;12202;52.136;5.592;2022-11-28T12:01:54;108.85;;;43.55;;
23988;SDS011;12202;52.136;5.592;2022-11-28T12:04:23;99.78;;;37.33;;
23988;SDS011;12202;52.136;5.592;2022-11-28T12:06:52;105.47;;;38.80;;
23988;SDS011;12202;52.136;5.592;2022-11-28T12:09:26;105.05;;;36.58;;
23988;SDS011;12202;52.136;5.592;2022-11-28T12:11:53;97.72;;;37.42;;
23988;SDS011;12202;52.136;5.592;2022-11-28T12:14:28;111.72;;;39.45;;
23988;SDS011;12202;52.136;5.592;2022-11-28T12:35:34;114.18;;;38.45;;
23988;SDS011;12202;52.136;5.592;2022-11-28T12:43:26;105.43;;;38.33;;
23988;SDS011;12202;52.136;5.592;2022-11-28T12:45:58;100.95;;;38.13;;
23988;SDS011;12202;52.136;5.592;2022-11-28T12:51:10;119.57;;;39.92;;
23988;SDS011;12202;52.136;5.592;2022-11-28T12:53:46;105.55;;;39.50;;
23988;SDS011;12202;52.136;5.592;2022-11-28T13:04:33;105.50;;;39.35;;
23988;SDS011;12202;52.136;5.592;2022-11-28T13:09:39;98.88;;;37.60;;
23988;SDS011;12202;52.136;5.592;2022-11-28T13:14:40;105.63;;;38.75;;
23988;SDS011;12202;52.136;5.592;2022-11-28T13:17:15;98.45;;;39.22;;
23988;SDS011;12202;52.136;5.592;2022-11-28T13:22:23;104.15;;;39.97;;
23988;SDS011;12202;52.136;5.592;2022-11-28T13:27:27;100.78;;;39.00;;
23988;SDS011;12202;52.136;5.592;2022-11-28T13:35:04;104.68;;;38.72;;
23988;SDS011;12202;52.136;5.592;2022-11-28T13:37:32;107.88;;;40.45;;
23988;SDS011;12202;52.136;5.592;2022-11-28T13:40:06;99.22;;;39.78;;
23988;SDS011;12202;52.136;5.592;2022-11-28T13:45:05;100.05;;;37.80;;
23988;SDS011;12202;52.136;5.592;2022-11-28T13:47:41;97.80;;;38.90;;
23988;SDS011;12202;52.136;5.592;2022-11-28T13:55:41;109.38;;;40.80;;
23988;SDS011;12202;52.136;5.592;2022-11-28T14:03:24;115.05;;;43.50;;
23988;SDS011;12202;52.136;5.592;2022-11-28T14:05:54;121.65;;;42.97;;
23988;SDS011;12202;52.136;5.592;2022-11-28T14:08:31;115.35;;;41.83;;
23988;SDS011;12202;52.136;5.592;2022-11-28T14:11:03;115.25;;;40.55;;
23988;SDS011;12202;52.136;5.592;2022-11-28T14:13:48;107.10;;;41.60;;
23988;SDS011;12202;52.136;5.592;2022-11-28T14:16:22;112.90;;;40.63;;
23988;SDS011;12202;52.136;5.592;2022-11-28T14:19:00;117.78;;;44.33;;
23988;SDS011;12202;52.136;5.592;2022-11-28T14:24:02;118.05;;;45.67;;
23988;SDS011;12202;52.136;5.592;2022-11-28T14:26:37;127.10;;;45.33;;
23988;SDS011;12202;52.136;5.592;2022-11-28T14:29:04;124.45;;;43.70;;
23988;SDS011;12202;52.136;5.592;2022-11-28T14:31:33;123.25;;;45.15;;
23988;SDS011;12202;52.136;5.592;2022-11-28T14:34:01;138.73;;;45.60;;
23988;SDS011;12202;52.136;5.592;2022-11-28T14:36:29;133.07;;;43.85;;
23988;SDS011;12202;52.136;5.592;2022-11-28T14:39:43;120.88;;;44.28;;
23988;SDS011;12202;52.136;5.592;2022-11-28T14:42:45;128.77;;;45.03;;
23988;SDS011;12202;52.136;5.592;2022-11-28T14:52:34;127.03;;;43.65;;
23988;SDS011;12202;52.136;5.592;2022-11-28T14:55:02;132.27;;;46.92;;
23988;SDS011;12202;52.136;5.592;2022-11-28T14:57:30;131.32;;;44.33;;
23988;SDS011;12202;52.136;5.592;2022-11-28T15:00:03;137.10;;;45.55;;
23988;SDS011;12202;52.136;5.592;2022-11-28T15:02:35;138.05;;;45.90;;
23988;SDS011;12202;52.136;5.592;2022-11-28T15:05:13;129.10;;;43.80;;
23988;SDS011;12202;52.136;5.592;2022-11-28T15:10:37;148.73;;;48.38;;
23988;SDS011;12202;52.136;5.592;2022-11-28T15:13:30;130.90;;;45.33;;
23988;SDS011;12202;52.136;5.592;2022-11-28T15:15:57;132.30;;;43.47;;
23988;SDS011;12202;52.136;5.592;2022-11-28T15:18:23;133.30;;;43.13;;
23988;SDS011;12202;52.136;5.592;2022-11-28T15:20:52;127.35;;;42.15;;
23988;SDS011;12202;52.136;5.592;2022-11-28T15:23:30;135.35;;;42.78;;
23988;SDS011;12202;52.136;5.592;2022-11-28T15:25:57;138.00;;;44.47;;
23988;SDS011;12202;52.136;5.592;2022-11-28T15:28:24;145.45;;;49.25;;
23988;SDS011;12202;52.136;5.592;2022-11-28T15:30:56;166.48;;;52.20;;
23988;SDS011;12202;52.136;5.592;2022-11-28T15:33:25;142.48;;;48.88;;
23988;SDS011;12202;52.136;5.592;2022-11-28T15:36:05;151.75;;;49.03;;
23988;SDS011;12202;52.136;5.592;2022-11-28T15:38:36;145.55;;;47.90;;
23988;SDS011;12202;52.136;5.592;2022-11-28T15:41:02;146.65;;;48.10;;
23988;SDS011;12202;52.136;5.592;2022-11-28T15:43:28;148.55;;;47.40;;
23988;SDS011;12202;52.136;5.592;2022-11-28T15:45:56;142.82;;;47.35;;
23988;SDS011;12202;52.136;5.592;2022-11-28T15:48:26;156.25;;;49.17;;
23988;SDS011;12202;52.136;5.592;2022-11-28T15:50:56;139.75;;;46.38;;
23988;SDS011;12202;52.136;5.592;2022-11-28T15:53:22;147.95;;;49.63;;
23988;SDS011;12202;52.136;5.592;2022-11-28T15:56:05;157.57;;;47.95;;
23988;SDS011;12202;52.136;5.592;2022-11-28T15:58:32;146.68;;;46.65;;
23988;SDS011;12202;52.136;5.592;2022-11-28T16:01:04;157.02;;;49.85;;
23988;SDS011;12202;52.136;5.592;2022-11-28T16:03:34;146.25;;;48.45;;
23988;SDS011;12202;52.136;5.592;2022-11-28T16:06:02;157.38;;;47.80;;
23988;SDS011;12202;52.136;5.592;2022-11-28T16:08:36;160.25;;;49.40;;
23988;SDS011;12202;52.136;5.592;2022-11-28T16:11:04;150.90;;;49.13;;
23988;SDS011;12202;52.136;5.592;2022-11-28T16:13:32;153.88;;;52.50;;
23988;SDS011;12202;52.136;5.592;2022-11-28T16:15:58;152.95;;;52.38;;
23988;SDS011;12202;52.136;5.592;2022-11-28T16:18:27;154.43;;;51.90;;
23988;SDS011;12202;52.136;5.592;2022-11-28T16:20:54;150.35;;;49.90;;
23988;SDS011;12202;52.136;5.592;2022-11-28T16:23:26;144.77;;;48.92;;
23988;SDS011;12202;52.136;5.592;2022-11-28T16:26:00;145.50;;;48.55;;
23988;SDS011;12202;52.136;5.592;2022-11-28T16:30:58;147.25;;;50.47;;
23988;SDS011;12202;52.136;5.592;2022-11-28T16:33:38;167.40;;;50.40;;
23988;SDS011;12202;52.136;5.592;2022-11-28T16:38:36;172.05;;;48.67;;
23988;SDS011;12202;52.136;5.592;2022-11-28T16:41:03;141.93;;;47.80;;
23988;SDS011;12202;52.136;5.592;2022-11-28T16:43:33;138.77;;;45.80;;
23988;SDS011;12202;52.136;5.592;2022-11-28T16:46:01;155.82;;;48.72;;
23988;SDS011;12202;52.136;5.592;2022-11-28T16:48:31;137.68;;;46.22;;
23988;SDS011;12202;52.136;5.592;2022-11-28T16:58:59;130.93;;;44.60;;
23988;SDS011;12202;52.136;5.592;2022-11-28T17:01:27;140.85;;;44.03;;
23988;SDS011;12202;52.136;5.592;2022-11-28T17:03:53;142.52;;;46.20;;
23988;SDS011;12202;52.136;5.592;2022-11-28T17:08:51;147.15;;;48.10;;
23988;SDS011;12202;52.136;5.592;2022-11-28T17:11:18;148.82;;;49.03;;
23988;SDS011;12202;52.136;5.592;2022-11-28T17:13:44;142.02;;;46.95;;
23988;SDS011;12202;52.136;5.592;2022-11-28T17:16:14;146.15;;;49.05;;
23988;SDS011;12202;52.136;5.592;2022-11-28T17:18:41;159.45;;;51.10;;